Terminal Aerodrome Forecast
Issued by NWS Billings, MT

Home | Current Version | Previous Version | Text Only | Print | Product List | Glossary On
Versions: 1 2 3 4 5 6 7 8 9 10 11 12 13 14 15 16 17 18
000
FTUS45 KBYZ 180528
TAFMLS
TAF
KMLS 180528Z 1806/1906 07011KT 2SM -SN BR SCT015 BKN030
     FM180700 03015G25KT 1SM -SN BKN015 OVC025
     FM181100 36012G20KT 3SM -SN BR SCT010 BKN015
     FM181600 36015KT P6SM VCSH SCT010 BKN020=

USA.gov is the U.S. government's official web portal to all federal, state and local government web resources and services.